sensor_id;sensor_type;location;lat;lon;timestamp;pressure;altitude;pressure_sealevel;temperature;humidity
34235;BME280;20500;49.856;20.290;2023-11-19T00:00:45;99474.27;;;2.02;85.91
34235;BME280;20500;49.856;20.290;2023-11-19T00:03:57;99473.21;;;2.04;85.89
34235;BME280;20500;49.856;20.290;2023-11-19T00:07:03;99472.45;;;2.04;85.83
34235;BME280;20500;49.856;20.290;2023-11-19T00:10:11;99472.14;;;2.06;85.83
34235;BME280;20500;49.856;20.290;2023-11-19T00:13:17;99463.90;;;2.08;85.93
34235;BME280;20500;49.856;20.290;2023-11-19T00:16:23;99455.83;;;2.11;85.95
34235;BME280;20500;49.856;20.290;2023-11-19T00:19:29;99455.08;;;2.14;86.03
34235;BME280;20500;49.856;20.290;2023-11-19T00:22:34;99458.30;;;2.14;85.87
34235;BME280;20500;49.856;20.290;2023-11-19T00:25:51;99459.95;;;2.13;85.78
34235;BME280;20500;49.856;20.290;2023-11-19T00:28:57;99452.95;;;2.11;85.94
34235;BME280;20500;49.856;20.290;2023-11-19T00:32:05;99449.92;;;2.11;85.83
34235;BME280;20500;49.856;20.290;2023-11-19T00:35:12;99447.30;;;2.10;85.91
34235;BME280;20500;49.856;20.290;2023-11-19T00:38:19;99448.55;;;2.10;85.89
34235;BME280;20500;49.856;20.290;2023-11-19T00:41:25;99443.60;;;2.09;85.82
34235;BME280;20500;49.856;20.290;2023-11-19T00:44:31;99436.14;;;2.08;85.85
34235;BME280;20500;49.856;20.290;2023-11-19T00:47:37;99428.08;;;2.08;85.88
34235;BME280;20500;49.856;20.290;2023-11-19T00:50:43;99424.73;;;2.05;85.77
34235;BME280;20500;49.856;20.290;2023-11-19T00:53:50;99417.81;;;2.02;85.76
34235;BME280;20500;49.856;20.290;2023-11-19T00:56:57;99408.09;;;2.03;85.96
34235;BME280;20500;49.856;20.290;2023-11-19T01:00:03;99401.65;;;2.03;85.91
34235;BME280;20500;49.856;20.290;2023-11-19T01:03:18;99395.96;;;2.03;85.98
34235;BME280;20500;49.856;20.290;2023-11-19T01:06:30;99398.73;;;2.04;85.97
34235;BME280;20500;49.856;20.290;2023-11-19T01:09:37;99395.63;;;2.05;85.96
34235;BME280;20500;49.856;20.290;2023-11-19T01:12:42;99392.27;;;2.04;85.96
34235;BME280;20500;49.856;20.290;2023-11-19T01:15:48;99384.52;;;2.05;85.96
34235;BME280;20500;49.856;20.290;2023-11-19T01:18:54;99378.84;;;2.06;86.09
34235;BME280;20500;49.856;20.290;2023-11-19T01:22:18;99373.50;;;2.08;86.06
34235;BME280;20500;49.856;20.290;2023-11-19T01:25:24;99366.68;;;2.11;86.08
34235;BME280;20500;49.856;20.290;2023-11-19T01:28:30;99366.51;;;2.13;86.15
34235;BME280;20500;49.856;20.290;2023-11-19T01:31:36;99367.45;;;2.14;86.14
34235;BME280;20500;49.856;20.290;2023-11-19T01:34:42;99367.99;;;2.14;86.09
34235;BME280;20500;49.856;20.290;2023-11-19T01:37:48;99378.05;;;2.12;85.93
34235;BME280;20500;49.856;20.290;2023-11-19T01:40:58;99382.03;;;2.07;85.90
34235;BME280;20500;49.856;20.290;2023-11-19T01:44:05;99378.36;;;2.04;86.02
34235;BME280;20500;49.856;20.290;2023-11-19T01:47:11;99361.83;;;2.04;86.11
34235;BME280;20500;49.856;20.290;2023-11-19T01:50:17;99357.94;;;2.01;85.89
34235;BME280;20500;49.856;20.290;2023-11-19T01:53:24;99357.30;;;1.95;85.84
34235;BME280;20500;49.856;20.290;2023-11-19T01:56:30;99350.37;;;1.95;86.07
34235;BME280;20500;49.856;20.290;2023-11-19T01:59:37;99342.09;;;1.98;86.09
34235;BME280;20500;49.856;20.290;2023-11-19T02:02:43;99337.36;;;1.99;86.13
34235;BME280;20500;49.856;20.290;2023-11-19T02:05:51;99336.26;;;2.01;86.19
34235;BME280;20500;49.856;20.290;2023-11-19T02:08:57;99334.45;;;2.02;86.17
34235;BME280;20500;49.856;20.290;2023-11-19T02:12:03;99335.14;;;2.02;86.19
34235;BME280;20500;49.856;20.290;2023-11-19T02:15:08;99323.58;;;2.04;86.22
34235;BME280;20500;49.856;20.290;2023-11-19T02:18:21;99319.89;;;2.03;86.19
34235;BME280;20500;49.856;20.290;2023-11-19T02:21:27;99321.42;;;2.01;86.24
34235;BME280;20500;49.856;20.290;2023-11-19T02:24:32;99313.45;;;2.00;86.27
34235;BME280;20500;49.856;20.290;2023-11-19T02:27:47;99311.56;;;2.02;86.31
34235;BME280;20500;49.856;20.290;2023-11-19T02:30:55;99310.83;;;2.02;86.21
34235;BME280;20500;49.856;20.290;2023-11-19T02:34:02;99302.02;;;2.02;86.14
34235;BME280;20500;49.856;20.290;2023-11-19T02:37:08;99293.02;;;1.96;86.00
34235;BME280;20500;49.856;20.290;2023-11-19T02:40:15;99283.73;;;1.91;86.08
34235;BME280;20500;49.856;20.290;2023-11-19T02:43:21;99271.05;;;1.88;86.04
34235;BME280;20500;49.856;20.290;2023-11-19T02:46:27;99264.47;;;1.84;86.01
34235;BME280;20500;49.856;20.290;2023-11-19T02:49:33;99266.04;;;1.82;86.13
34235;BME280;20500;49.856;20.290;2023-11-19T02:52:41;99263.31;;;1.85;86.27
34235;BME280;20500;49.856;20.290;2023-11-19T02:55:47;99249.54;;;1.87;86.44
34235;BME280;20500;49.856;20.290;2023-11-19T02:58:54;99237.23;;;1.86;86.21
34235;BME280;20500;49.856;20.290;2023-11-19T03:02:00;99239.66;;;1.83;86.22
34235;BME280;20500;49.856;20.290;2023-11-19T03:05:07;99240.38;;;1.85;86.28
34235;BME280;20500;49.856;20.290;2023-11-19T03:08:13;99236.10;;;1.87;86.22
34235;BME280;20500;49.856;20.290;2023-11-19T03:11:27;99221.80;;;1.87;86.29
34235;BME280;20500;49.856;20.290;2023-11-19T03:14:34;99210.39;;;1.88;86.37
34235;BME280;20500;49.856;20.290;2023-11-19T03:17:41;99202.83;;;1.91;86.40
34235;BME280;20500;49.856;20.290;2023-11-19T03:20:47;99193.98;;;1.92;86.29
34235;BME280;20500;49.856;20.290;2023-11-19T03:23:54;99182.93;;;1.85;86.01
34235;BME280;20500;49.856;20.290;2023-11-19T03:27:00;99180.45;;;1.78;86.19
34235;BME280;20500;49.856;20.290;2023-11-19T03:30:08;99176.16;;;1.76;86.28
34235;BME280;20500;49.856;20.290;2023-11-19T03:33:14;99169.35;;;1.78;86.44
34235;BME280;20500;49.856;20.290;2023-11-19T03:36:20;99177.56;;;1.81;86.47
34235;BME280;20500;49.856;20.290;2023-11-19T03:39:25;99178.65;;;1.83;86.51
34235;BME280;20500;49.856;20.290;2023-11-19T03:42:31;99175.34;;;1.84;86.44
34235;BME280;20500;49.856;20.290;2023-11-19T03:45:37;99166.23;;;1.84;86.50
34235;BME280;20500;49.856;20.290;2023-11-19T03:48:43;99163.73;;;1.81;86.38
34235;BME280;20500;49.856;20.290;2023-11-19T03:51:49;99165.08;;;1.78;86.41
34235;BME280;20500;49.856;20.290;2023-11-19T03:54:54;99156.21;;;1.77;86.38
34235;BME280;20500;49.856;20.290;2023-11-19T03:58:01;99150.16;;;1.68;86.05
34235;BME280;20500;49.856;20.290;2023-11-19T04:01:12;99150.34;;;1.59;86.31
34235;BME280;20500;49.856;20.290;2023-11-19T04:04:18;99141.51;;;1.62;86.57
34235;BME280;20500;49.856;20.290;2023-11-19T04:07:24;99130.55;;;1.67;86.70
34235;BME280;20500;49.856;20.290;2023-11-19T04:10:30;99127.15;;;1.71;86.61
34235;BME280;20500;49.856;20.290;2023-11-19T04:13:36;99119.84;;;1.71;86.57
34235;BME280;20500;49.856;20.290;2023-11-19T04:16:42;99102.80;;;1.71;86.59
34235;BME280;20500;49.856;20.290;2023-11-19T04:19:47;99098.25;;;1.73;86.58
34235;BME280;20500;49.856;20.290;2023-11-19T04:22:53;99100.32;;;1.74;86.56
34235;BME280;20500;49.856;20.290;2023-11-19T04:25:58;99096.17;;;1.74;86.60
34235;BME280;20500;49.856;20.290;2023-11-19T04:29:15;99087.19;;;1.74;86.59
34235;BME280;20500;49.856;20.290;2023-11-19T04:35:30;99069.25;;;1.68;86.44
34235;BME280;20500;49.856;20.290;2023-11-19T04:38:35;99062.70;;;1.65;86.61
34235;BME280;20500;49.856;20.290;2023-11-19T04:41:48;99058.79;;;1.67;86.69
34235;BME280;20500;49.856;20.290;2023-11-19T04:44:56;99057.41;;;1.69;86.53
34235;BME280;20500;49.856;20.290;2023-11-19T04:48:01;99059.15;;;1.69;86.53
34235;BME280;20500;49.856;20.290;2023-11-19T04:51:08;99050.81;;;1.69;86.64
34235;BME280;20500;49.856;20.290;2023-11-19T04:54:14;99040.75;;;1.71;86.75
34235;BME280;20500;49.856;20.290;2023-11-19T04:57:20;99030.58;;;1.75;86.90
34235;BME280;20500;49.856;20.290;2023-11-19T05:00:26;99021.68;;;1.77;86.75
34235;BME280;20500;49.856;20.290;2023-11-19T05:03:31;99015.73;;;1.78;86.80
34235;BME280;20500;49.856;20.290;2023-11-19T05:06:37;99016.58;;;1.76;86.74
34235;BME280;20500;49.856;20.290;2023-11-19T05:09:43;99013.93;;;1.76;86.87
34235;BME280;20500;49.856;20.290;2023-11-19T05:12:49;99018.28;;;1.79;87.02
34235;BME280;20500;49.856;20.290;2023-11-19T05:15:56;99020.13;;;1.80;86.87
34235;BME280;20500;49.856;20.290;2023-11-19T05:19:01;99023.52;;;1.81;86.85
34235;BME280;20500;49.856;20.290;2023-11-19T05:22:08;99027.48;;;1.80;86.87
34235;BME280;20500;49.856;20.290;2023-11-19T05:25:14;99022.61;;;1.83;86.96
34235;BME280;20500;49.856;20.290;2023-11-19T05:28:20;99019.11;;;1.84;86.89
34235;BME280;20500;49.856;20.290;2023-11-19T05:31:25;99020.02;;;1.84;86.81
34235;BME280;20500;49.856;20.290;2023-11-19T05:34:31;99018.75;;;1.82;86.73
34235;BME280;20500;49.856;20.290;2023-11-19T05:37:37;99016.83;;;1.81;86.75
34235;BME280;20500;49.856;20.290;2023-11-19T05:40:43;99018.61;;;1.82;86.75
34235;BME280;20500;49.856;20.290;2023-11-19T05:43:49;99017.80;;;1.83;86.81
34235;BME280;20500;49.856;20.290;2023-11-19T05:46:56;99014.41;;;1.82;86.74
34235;BME280;20500;49.856;20.290;2023-11-19T05:50:02;99011.65;;;1.81;86.61
34235;BME280;20500;49.856;20.290;2023-11-19T05:53:10;99013.77;;;1.82;86.57
34235;BME280;20500;49.856;20.290;2023-11-19T05:56:17;99016.64;;;1.82;86.58
34235;BME280;20500;49.856;20.290;2023-11-19T05:59:26;99015.75;;;1.81;86.52
34235;BME280;20500;49.856;20.290;2023-11-19T06:02:34;99011.85;;;1.81;86.50
34235;BME280;20500;49.856;20.290;2023-11-19T06:05:41;99003.36;;;1.80;86.52
34235;BME280;20500;49.856;20.290;2023-11-19T06:08:49;98987.77;;;1.80;86.50
34235;BME280;20500;49.856;20.290;2023-11-19T06:11:54;98974.20;;;1.76;86.23
34235;BME280;20500;49.856;20.290;2023-11-19T06:15:02;98975.14;;;1.69;86.11
34235;BME280;20500;49.856;20.290;2023-11-19T06:18:06;98973.08;;;1.65;86.20
34235;BME280;20500;49.856;20.290;2023-11-19T06:21:13;98968.84;;;1.65;86.16
34235;BME280;20500;49.856;20.290;2023-11-19T06:24:17;98974.98;;;1.66;86.28
34235;BME280;20500;49.856;20.290;2023-11-19T06:27:23;98973.91;;;1.70;86.45
34235;BME280;20500;49.856;20.290;2023-11-19T06:30:29;98969.29;;;1.75;86.51
34235;BME280;20500;49.856;20.290;2023-11-19T06:33:37;98973.79;;;1.78;86.54
34235;BME280;20500;49.856;20.290;2023-11-19T06:36:43;98982.67;;;1.79;86.32
34235;BME280;20500;49.856;20.290;2023-11-19T06:39:49;98986.54;;;1.80;86.36
34235;BME280;20500;49.856;20.290;2023-11-19T06:42:54;98991.94;;;1.84;86.43
34235;BME280;20500;49.856;20.290;2023-11-19T06:46:00;98989.35;;;1.89;86.60
34235;BME280;20500;49.856;20.290;2023-11-19T06:49:06;98993.02;;;1.92;86.52
34235;BME280;20500;49.856;20.290;2023-11-19T06:52:13;98993.19;;;1.94;86.58
34235;BME280;20500;49.856;20.290;2023-11-19T06:55:18;98993.83;;;1.95;86.60
34235;BME280;20500;49.856;20.290;2023-11-19T06:58:24;98979.05;;;1.99;86.70
34235;BME280;20500;49.856;20.290;2023-11-19T07:01:35;98955.02;;;2.06;86.82
34235;BME280;20500;49.856;20.290;2023-11-19T07:04:41;98949.52;;;2.09;86.69
34235;BME280;20500;49.856;20.290;2023-11-19T07:07:47;98948.11;;;2.13;86.67
34235;BME280;20500;49.856;20.290;2023-11-19T07:10:52;98949.41;;;2.17;86.65
34235;BME280;20500;49.856;20.290;2023-11-19T07:13:58;98944.92;;;2.21;86.61
34235;BME280;20500;49.856;20.290;2023-11-19T07:17:05;98933.39;;;2.28;86.56
34235;BME280;20500;49.856;20.290;2023-11-19T07:20:12;98922.06;;;2.33;86.38
34235;BME280;20500;49.856;20.290;2023-11-19T07:23:20;98906.80;;;2.37;86.47
34235;BME280;20500;49.856;20.290;2023-11-19T07:26:26;98901.66;;;2.42;86.43
34235;BME280;20500;49.856;20.290;2023-11-19T07:29:32;98903.31;;;2.48;86.44
34235;BME280;20500;49.856;20.290;2023-11-19T07:32:40;98900.42;;;2.53;86.31
34235;BME280;20500;49.856;20.290;2023-11-19T07:35:46;98888.34;;;2.56;86.30
34235;BME280;20500;49.856;20.290;2023-11-19T07:38:53;98883.92;;;2.57;86.12
34235;BME280;20500;49.856;20.290;2023-11-19T07:42:02;98887.73;;;2.55;85.83
34235;BME280;20500;49.856;20.290;2023-11-19T07:45:07;98879.42;;;2.55;85.90
34235;BME280;20500;49.856;20.290;2023-11-19T07:48:13;98876.04;;;2.59;86.07
34235;BME280;20500;49.856;20.290;2023-11-19T07:51:18;98881.35;;;2.64;86.05
34235;BME280;20500;49.856;20.290;2023-11-19T07:54:24;98880.98;;;2.66;86.01
34235;BME280;20500;49.856;20.290;2023-11-19T07:57:30;98885.96;;;2.66;85.95
34235;BME280;20500;49.856;20.290;2023-11-19T08:00:35;98893.04;;;2.71;86.00
34235;BME280;20500;49.856;20.290;2023-11-19T08:03:41;98888.51;;;2.76;85.96
34235;BME280;20500;49.856;20.290;2023-11-19T08:07:03;98889.29;;;2.81;86.08
34235;BME280;20500;49.856;20.290;2023-11-19T08:10:09;98888.30;;;2.86;85.93
34235;BME280;20500;49.856;20.290;2023-11-19T08:13:15;98890.72;;;2.89;85.73
34235;BME280;20500;49.856;20.290;2023-11-19T08:16:24;98893.79;;;2.91;85.49
34235;BME280;20500;49.856;20.290;2023-11-19T08:19:30;98882.73;;;2.96;85.64
34235;BME280;20500;49.856;20.290;2023-11-19T08:22:36;98868.09;;;3.02;85.55
34235;BME280;20500;49.856;20.290;2023-11-19T08:25:42;98861.88;;;3.07;85.46
34235;BME280;20500;49.856;20.290;2023-11-19T08:28:47;98856.08;;;3.07;85.24
34235;BME280;20500;49.856;20.290;2023-11-19T08:31:52;98853.87;;;3.08;85.22
34235;BME280;20500;49.856;20.290;2023-11-19T08:34:58;98843.91;;;3.09;85.17
34235;BME280;20500;49.856;20.290;2023-11-19T08:38:04;98838.05;;;3.10;85.04
34235;BME280;20500;49.856;20.290;2023-11-19T08:41:10;98834.15;;;3.18;85.21
34235;BME280;20500;49.856;20.290;2023-11-19T08:44:15;98828.23;;;3.26;85.10
34235;BME280;20500;49.856;20.290;2023-11-19T08:47:23;98823.54;;;3.32;85.00
34235;BME280;20500;49.856;20.290;2023-11-19T08:50:28;98817.77;;;3.38;84.92
34235;BME280;20500;49.856;20.290;2023-11-19T08:53:33;98823.62;;;3.40;84.75
34235;BME280;20500;49.856;20.290;2023-11-19T08:56:40;98826.45;;;3.45;84.86
34235;BME280;20500;49.856;20.290;2023-11-19T08:59:44;98821.93;;;3.51;84.77
34235;BME280;20500;49.856;20.290;2023-11-19T09:02:50;98812.45;;;3.54;84.55
34235;BME280;20500;49.856;20.290;2023-11-19T09:05:56;98810.45;;;3.55;84.36
34235;BME280;20500;49.856;20.290;2023-11-19T09:09:03;98814.02;;;3.57;84.45
34235;BME280;20500;49.856;20.290;2023-11-19T09:12:10;98807.77;;;3.60;84.39
34235;BME280;20500;49.856;20.290;2023-11-19T09:15:15;98802.41;;;3.62;84.19
34235;BME280;20500;49.856;20.290;2023-11-19T09:18:21;98791.89;;;3.65;84.26
34235;BME280;20500;49.856;20.290;2023-11-19T09:21:27;98789.09;;;3.70;84.27
34235;BME280;20500;49.856;20.290;2023-11-19T09:24:34;98789.08;;;3.72;84.02
34235;BME280;20500;49.856;20.290;2023-11-19T09:27:40;98783.88;;;3.72;83.89
34235;BME280;20500;49.856;20.290;2023-11-19T09:30:45;98782.42;;;3.74;83.91
34235;BME280;20500;49.856;20.290;2023-11-19T09:33:51;98782.55;;;3.76;83.93
34235;BME280;20500;49.856;20.290;2023-11-19T09:36:57;98782.63;;;3.79;83.89
34235;BME280;20500;49.856;20.290;2023-11-19T09:40:03;98767.70;;;3.83;83.72
34235;BME280;20500;49.856;20.290;2023-11-19T09:43:09;98759.03;;;3.84;83.51
34235;BME280;20500;49.856;20.290;2023-11-19T09:46:16;98744.84;;;3.88;83.61
34235;BME280;20500;49.856;20.290;2023-11-19T09:49:21;98735.30;;;3.88;83.41
34235;BME280;20500;49.856;20.290;2023-11-19T09:52:30;98734.73;;;3.88;83.29
34235;BME280;20500;49.856;20.290;2023-11-19T09:55:36;98729.79;;;3.91;83.29
34235;BME280;20500;49.856;20.290;2023-11-19T09:58:42;98722.73;;;3.96;83.24
34235;BME280;20500;49.856;20.290;2023-11-19T10:01:49;98725.80;;;3.99;83.23
34235;BME280;20500;49.856;20.290;2023-11-19T10:04:56;98717.41;;;4.00;83.23
34235;BME280;20500;49.856;20.290;2023-11-19T10:08:03;98709.62;;;4.01;83.08
34235;BME280;20500;49.856;20.290;2023-11-19T10:11:09;98702.29;;;4.05;83.20
34235;BME280;20500;49.856;20.290;2023-11-19T10:14:16;98692.50;;;4.09;83.19
34235;BME280;20500;49.856;20.290;2023-11-19T10:17:28;98682.79;;;4.13;83.14
34235;BME280;20500;49.856;20.290;2023-11-19T10:20:40;98675.48;;;4.20;83.07
34235;BME280;20500;49.856;20.290;2023-11-19T10:23:53;98673.61;;;4.28;83.02
34235;BME280;20500;49.856;20.290;2023-11-19T10:27:02;98674.46;;;4.37;82.87
34235;BME280;20500;49.856;20.290;2023-11-19T10:30:10;98674.36;;;4.44;82.81
34235;BME280;20500;49.856;20.290;2023-11-19T10:33:16;98671.34;;;4.49;82.80
34235;BME280;20500;49.856;20.290;2023-11-19T10:36:38;98657.47;;;4.52;82.70
34235;BME280;20500;49.856;20.290;2023-11-19T10:39:55;98654.59;;;4.58;82.61
34235;BME280;20500;49.856;20.290;2023-11-19T10:43:05;98652.67;;;4.66;82.62
34235;BME280;20500;49.856;20.290;2023-11-19T10:46:13;98647.77;;;4.72;82.47
34235;BME280;20500;49.856;20.290;2023-11-19T10:49:25;98636.44;;;4.78;82.33
34235;BME280;20500;49.856;20.290;2023-11-19T10:52:31;98627.17;;;4.78;82.18
34235;BME280;20500;49.856;20.290;2023-11-19T10:55:40;98623.14;;;4.77;82.05
34235;BME280;20500;49.856;20.290;2023-11-19T10:58:46;98615.45;;;4.77;81.90
34235;BME280;20500;49.856;20.290;2023-11-19T11:01:55;98609.81;;;4.74;81.71
34235;BME280;20500;49.856;20.290;2023-11-19T11:05:02;98603.28;;;4.71;81.66
34235;BME280;20500;49.856;20.290;2023-11-19T11:08:09;98594.08;;;4.72;81.58
34235;BME280;20500;49.856;20.290;2023-11-19T11:11:17;98584.16;;;4.70;81.48
34235;BME280;20500;49.856;20.290;2023-11-19T11:14:25;98576.79;;;4.70;81.58
34235;BME280;20500;49.856;20.290;2023-11-19T11:17:33;98569.73;;;4.71;81.40
34235;BME280;20500;49.856;20.290;2023-11-19T11:20:39;98562.40;;;4.68;81.27
34235;BME280;20500;49.856;20.290;2023-11-19T11:27:26;98546.48;;;4.66;81.15
34235;BME280;20500;49.856;20.290;2023-11-19T11:30:49;98538.02;;;4.64;80.99
34235;BME280;20500;49.856;20.290;2023-11-19T11:34:11;98536.66;;;4.65;81.04
34235;BME280;20500;49.856;20.290;2023-11-19T11:37:35;98530.05;;;4.67;81.02
34235;BME280;20500;49.856;20.290;2023-11-19T11:40:43;98524.59;;;4.66;80.70
34235;BME280;20500;49.856;20.290;2023-11-19T11:43:50;98523.99;;;4.64;80.69
34235;BME280;20500;49.856;20.290;2023-11-19T11:46:56;98524.13;;;4.65;80.62
34235;BME280;20500;49.856;20.290;2023-11-19T11:50:09;98514.52;;;4.62;80.48
34235;BME280;20500;49.856;20.290;2023-11-19T11:53:22;98506.18;;;4.61;80.43
34235;BME280;20500;49.856;20.290;2023-11-19T11:56:38;98492.42;;;4.59;80.31
34235;BME280;20500;49.856;20.290;2023-11-19T11:59:50;98486.66;;;4.54;80.06
34235;BME280;20500;49.856;20.290;2023-11-19T12:02:58;98482.00;;;4.48;80.02
34235;BME280;20500;49.856;20.290;2023-11-19T12:06:06;98474.16;;;4.41;79.92
34235;BME280;20500;49.856;20.290;2023-11-19T12:09:12;98467.36;;;4.35;79.79
34235;BME280;20500;49.856;20.290;2023-11-19T12:12:28;98469.70;;;4.32;79.93
34235;BME280;20500;49.856;20.290;2023-11-19T12:16:10;98476.67;;;4.28;79.89
34235;BME280;20500;49.856;20.290;2023-11-19T12:19:16;98474.58;;;4.23;79.85
34235;BME280;20500;49.856;20.290;2023-11-19T12:22:22;98470.02;;;4.14;79.76
34235;BME280;20500;49.856;20.290;2023-11-19T12:25:35;98458.69;;;4.07;79.78
34235;BME280;20500;49.856;20.290;2023-11-19T12:28:41;98455.63;;;4.04;79.96
34235;BME280;20500;49.856;20.290;2023-11-19T12:32:02;98454.20;;;4.00;79.87
34235;BME280;20500;49.856;20.290;2023-11-19T12:35:12;98444.80;;;3.98;79.98
34235;BME280;20500;49.856;20.290;2023-11-19T12:38:24;98447.62;;;3.96;80.01
34235;BME280;20500;49.856;20.290;2023-11-19T12:41:30;98447.17;;;3.90;79.93
34235;BME280;20500;49.856;20.290;2023-11-19T12:44:38;98444.70;;;3.84;79.92
34235;BME280;20500;49.856;20.290;2023-11-19T12:47:45;98442.38;;;3.77;79.97
34235;BME280;20500;49.856;20.290;2023-11-19T12:50:53;98443.52;;;3.73;80.13
34235;BME280;20500;49.856;20.290;2023-11-19T12:54:00;98435.83;;;3.71;80.26
34235;BME280;20500;49.856;20.290;2023-11-19T12:57:06;98427.61;;;3.67;80.22
34235;BME280;20500;49.856;20.290;2023-11-19T13:00:22;98427.14;;;3.59;80.23
34235;BME280;20500;49.856;20.290;2023-11-19T13:03:32;98417.59;;;3.53;80.28
34235;BME280;20500;49.856;20.290;2023-11-19T13:06:46;98411.51;;;3.43;80.27
34235;BME280;20500;49.856;20.290;2023-11-19T13:10:10;98404.69;;;3.36;80.41
34235;BME280;20500;49.856;20.290;2023-11-19T13:13:16;98397.08;;;3.33;80.72
34235;BME280;20500;49.856;20.290;2023-11-19T13:16:21;98395.52;;;3.34;80.74
34235;BME280;20500;49.856;20.290;2023-11-19T13:19:27;98385.91;;;3.32;80.72
34235;BME280;20500;49.856;20.290;2023-11-19T13:22:33;98385.13;;;3.31;80.83
34235;BME280;20500;49.856;20.290;2023-11-19T13:25:39;98381.17;;;3.35;80.97
34235;BME280;20500;49.856;20.290;2023-11-19T13:28:45;98376.34;;;3.36;81.06
34235;BME280;20500;49.856;20.290;2023-11-19T13:31:50;98377.05;;;3.38;81.24
34235;BME280;20500;49.856;20.290;2023-11-19T13:34:56;98372.60;;;3.39;81.31
34235;BME280;20500;49.856;20.290;2023-11-19T13:38:02;98366.70;;;3.41;81.32
34235;BME280;20500;49.856;20.290;2023-11-19T13:41:08;98365.48;;;3.41;81.31
34235;BME280;20500;49.856;20.290;2023-11-19T13:44:15;98364.55;;;3.39;81.50
34235;BME280;20500;49.856;20.290;2023-11-19T13:47:20;98366.63;;;3.44;81.58
34235;BME280;20500;49.856;20.290;2023-11-19T13:50:26;98357.29;;;3.44;81.56
34235;BME280;20500;49.856;20.290;2023-11-19T13:53:33;98358.25;;;3.45;81.71
34235;BME280;20500;49.856;20.290;2023-11-19T13:56:41;98353.84;;;3.48;81.70
34235;BME280;20500;49.856;20.290;2023-11-19T13:59:49;98346.62;;;3.45;81.81
34235;BME280;20500;49.856;20.290;2023-11-19T14:02:54;98336.36;;;3.45;82.01
34235;BME280;20500;49.856;20.290;2023-11-19T14:06:01;98335.61;;;3.47;82.10
34235;BME280;20500;49.856;20.290;2023-11-19T14:09:06;98332.42;;;3.49;82.13
34235;BME280;20500;49.856;20.290;2023-11-19T14:12:12;98332.30;;;3.51;82.18
34235;BME280;20500;49.856;20.290;2023-11-19T14:15:18;98328.63;;;3.54;82.23
34235;BME280;20500;49.856;20.290;2023-11-19T14:18:24;98331.58;;;3.57;82.27
34235;BME280;20500;49.856;20.290;2023-11-19T14:21:29;98325.60;;;3.61;82.32
34235;BME280;20500;49.856;20.290;2023-11-19T14:24:34;98326.47;;;3.65;82.30
34235;BME280;20500;49.856;20.290;2023-11-19T14:27:42;98329.09;;;3.65;82.48
34235;BME280;20500;49.856;20.290;2023-11-19T14:30:48;98319.98;;;3.67;82.55
34235;BME280;20500;49.856;20.290;2023-11-19T14:33:58;98322.34;;;3.66;82.69
34235;BME280;20500;49.856;20.290;2023-11-19T14:37:05;98320.83;;;3.67;82.47
34235;BME280;20500;49.856;20.290;2023-11-19T14:40:12;98318.89;;;3.67;82.62
34235;BME280;20500;49.856;20.290;2023-11-19T14:43:18;98317.71;;;3.68;82.73
34235;BME280;20500;49.856;20.290;2023-11-19T14:46:24;98316.13;;;3.69;82.74
34235;BME280;20500;49.856;20.290;2023-11-19T14:49:30;98311.35;;;3.69;82.74
34235;BME280;20500;49.856;20.290;2023-11-19T14:52:36;98313.87;;;3.67;82.88
34235;BME280;20500;49.856;20.290;2023-11-19T14:55:41;98310.95;;;3.67;82.88
34235;BME280;20500;49.856;20.290;2023-11-19T14:58:47;98308.31;;;3.67;82.98
34235;BME280;20500;49.856;20.290;2023-11-19T15:01:55;98301.26;;;3.67;83.10
34235;BME280;20500;49.856;20.290;2023-11-19T15:05:02;98298.80;;;3.67;83.16
34235;BME280;20500;49.856;20.290;2023-11-19T15:08:08;98295.44;;;3.68;83.31
34235;BME280;20500;49.856;20.290;2023-11-19T15:11:13;98291.00;;;3.69;83.34
34235;BME280;20500;49.856;20.290;2023-11-19T15:14:19;98288.55;;;3.71;83.37
34235;BME280;20500;49.856;20.290;2023-11-19T15:17:25;98282.23;;;3.71;83.48
34235;BME280;20500;49.856;20.290;2023-11-19T15:20:32;98279.73;;;3.71;83.49
34235;BME280;20500;49.856;20.290;2023-11-19T15:23:38;98282.34;;;3.72;83.58
34235;BME280;20500;49.856;20.290;2023-11-19T15:26:45;98278.78;;;3.73;83.76
34235;BME280;20500;49.856;20.290;2023-11-19T15:29:50;98268.20;;;3.76;83.82
34235;BME280;20500;49.856;20.290;2023-11-19T15:32:56;98264.59;;;3.78;83.77
34235;BME280;20500;49.856;20.290;2023-11-19T15:36:02;98268.53;;;3.79;83.90
34235;BME280;20500;49.856;20.290;2023-11-19T15:39:12;98264.02;;;3.79;83.95
34235;BME280;20500;49.856;20.290;2023-11-19T15:42:18;98261.77;;;3.79;84.03
34235;BME280;20500;49.856;20.290;2023-11-19T15:45:23;98257.46;;;3.81;84.16
34235;BME280;20500;49.856;20.290;2023-11-19T15:48:29;98258.89;;;3.83;84.19
34235;BME280;20500;49.856;20.290;2023-11-19T15:51:35;98261.28;;;3.84;84.09
34235;BME280;20500;49.856;20.290;2023-11-19T15:54:41;98257.50;;;3.86;84.24
34235;BME280;20500;49.856;20.290;2023-11-19T15:57:46;98256.70;;;3.87;84.25
34235;BME280;20500;49.856;20.290;2023-11-19T16:00:53;98251.83;;;3.89;84.27
34235;BME280;20500;49.856;20.290;2023-11-19T16:04:00;98249.35;;;3.90;84.39
34235;BME280;20500;49.856;20.290;2023-11-19T16:07:06;98244.07;;;3.93;84.51
34235;BME280;20500;49.856;20.290;2023-11-19T16:10:12;98239.44;;;3.94;84.48
34235;BME280;20500;49.856;20.290;2023-11-19T16:13:19;98245.47;;;3.96;84.65
34235;BME280;20500;49.856;20.290;2023-11-19T16:16:26;98247.30;;;3.98;84.63
34235;BME280;20500;49.856;20.290;2023-11-19T16:19:32;98247.55;;;3.97;84.72
34235;BME280;20500;49.856;20.290;2023-11-19T16:22:40;98246.48;;;3.97;84.73
34235;BME280;20500;49.856;20.290;2023-11-19T16:25:47;98240.73;;;3.99;84.88
34235;BME280;20500;49.856;20.290;2023-11-19T16:28:52;98235.93;;;4.00;84.91
34235;BME280;20500;49.856;20.290;2023-11-19T16:31:58;98232.84;;;4.02;84.97
34235;BME280;20500;49.856;20.290;2023-11-19T16:35:05;98230.86;;;4.04;85.06
34235;BME280;20500;49.856;20.290;2023-11-19T16:38:14;98235.45;;;4.06;85.12